Latest Coastal Weather Observations for Alva Beach

IDQ60701

Issued at 7:16 pm EST Sunday 21 December 2014 (issued every 10 minutes, with the page automatically refreshed every 10 minutes)

About coastal observations | Map of coastal stations | Coastal observations for QLD | Marine services | Other Formats
Station Details ID: 033295 Name: ALVA BEACH Lat: -19.46 Lon: 147.48 Height: 7.5 m
Data from the previous 72 hours. | See also: Recent months at Alva Beach
Date/Time
EST
Temp

°C
Wind Pressure Rain
since 9am
mm
Weather Cloud Vis
km
Sea
Height
m
Swell
Dir
 
Speed
knots
Gust
knots
hPa Trend Height
m
Period
s
Dir
21/07:00pm 27.9 E 16 22 1011.8 - 0.0 - - - - - - -
21/06:30pm 28.1 E 15 22 1011.6 - 0.0 - - - - - - -
21/06:00pm 28.3 E 15 20 1011.3 - 0.0 - - - - - - -
21/05:30pm 28.5 E 14 19 1011.0 - 0.0 - - - - - - -
21/05:00pm 28.8 E 14 18 1010.8 - 0.0 - - - - - - -
21/04:30pm 29.1 E 14 19 1010.8 - 0.0 - - - - - - -
21/04:00pm 29.4 E 13 17 1010.8 - 0.0 - - - - - - -
21/03:30pm 29.7 E 12 18 1010.9 - 0.0 - - - - - - -
21/03:00pm 29.6 E 12 16 1011.2 - 0.0 - - - - - - -
21/02:30pm 30.0 E 13 17 1011.2 - 0.0 - - - - - - -
21/02:00pm 29.9 E 11 17 1011.6 - 0.0 - - - - - - -
21/01:30pm 29.7 E 10 13 1012.0 - 0.0 - - - - - - -
21/01:00pm 29.7 E 11 14 1012.3 - 0.0 - - - - - - -
21/12:30pm 29.9 E 10 15 1012.7 - 0.0 - - - - - - -
21/12:00pm 30.4 ESE 9 15 1012.9 - 0.0 - - - - - - -
21/11:30am 30.8 ESE 7 13 1013.3 - 0.0 - - - - - - -
21/11:00am 29.7 E 11 15 1013.6 - 0.0 - - - - - - -
21/10:30am 30.5 ESE 9 13 1013.6 - 0.0 - - - - - - -
21/10:00am 29.5 E 10 15 1013.5 - 0.0 - - - - - - -
21/09:30am 29.1 E 10 14 1013.6 - 0.0 - - - - - - -
21/09:00am 29.3 E 10 14 1013.5 - 2.0 Recent precip. - - - - - -
21/08:30am 29.1 E 9 15 1013.3 - 2.0 - - - - - - -
21/08:00am 28.0 E 10 14 1013.0 - 1.8 - - - - - - -
21/07:30am 28.2 E 10 15 1012.9 - 1.8 - - - - - - -
21/07:00am 28.1 E 11 16 1012.4 - 1.8 - - - - - - -
21/06:30am 27.5 E 11 16 1012.1 - 1.8 - - - - - - -
21/06:00am 26.7 E 11 15 1011.6 - 1.8 - - - - - - -
21/05:30am 26.7 E 12 16 1011.2 - 1.8 - - - - - - -
21/05:00am 26.7 E 11 15 1010.9 - 1.8 - - - - - - -
21/04:30am 26.9 E 12 16 1010.7 - 1.8 - - - - - - -
21/04:00am 26.9 E 12 16 1010.5 - 1.8 - - - - - - -
21/03:30am 27.0 E 12 17 1010.3 - 1.8 - - - - - - -
21/03:00am 27.0 E 13 17 1010.4 - 1.8 - - - - - - -
21/02:30am 27.1 E 13 20 1010.2 - 1.8 - - - - - - -
21/02:00am 27.2 E 14 20 1010.5 - 1.8 - - - - - - -
21/01:30am 27.3 E 16 21 1010.6 - 1.8 - - - - - - -
21/01:00am 27.5 E 13 18 1011.1 - 1.8 - - - - - - -
21/12:30am 27.3 E 14 19 1011.3 - 1.8 - - - - - - -
21/12:00am 27.3 E 14 20 1011.5 - 1.8 - - - - - - -
 
Date/Time
EST
Temp

°C
Wind Pressure Rain
since 9am
mm
Weather Cloud Vis
km
Sea
Height
m
Swell
Dir
 
Speed
knots
Gust
knots
hPa Trend Height
m
Period
s
Dir
20/11:30pm 27.4 E 15 19 1011.7 - 1.8 - - - - - - -
20/11:00pm 26.5 ENE 16 19 1011.7 - 1.8 - - - - - - -
20/10:30pm 25.8 E 15 20 1012.0 - 0.2 - - - - - - -
20/10:00pm 27.8 E 14 20 1012.1 - 0.0 - - - - - - -
20/09:30pm 28.2 E 10 14 1012.1 - 0.0 - - - - - - -
20/09:00pm 28.3 E 11 14 1011.7 - 0.0 - - - - - - -
20/08:30pm 28.3 E 9 12 1011.8 - 0.0 - - - - - - -
20/08:00pm 28.2 E 10 13 1011.8 - 0.0 - - - - - - -
20/07:30pm 28.2 E 10 13 1011.3 - 0.0 - - - - - - -
20/07:00pm 28.2 E 10 13 1010.9 - 0.0 - - - - - - -
20/06:30pm 28.3 ENE 13 15 1009.9 - 0.0 - - - - - - -
20/06:00pm 28.7 ENE 14 17 1009.1 - 0.0 - - - - - - -
20/05:30pm 29.0 ENE 14 16 1008.7 - 0.0 - - - - - - -
20/05:00pm 29.3 ENE 12 15 1008.9 - 0.0 - - - - - - -
20/04:30pm 29.3 NE 11 14 1008.7 - 0.0 - - - - - - -
20/04:00pm 29.9 ENE 11 14 1008.7 - 0.0 - - - - - - -
20/03:30pm 30.1 ENE 11 13 1008.6 - 0.0 - - - - - - -
20/03:00pm 30.1 NE 10 13 1009.1 - 0.0 - - - - - - -
20/02:30pm 30.0 NE 9 12 1009.2 - 0.0 - - - - - - -
20/02:00pm 30.0 ENE 10 12 1009.6 - 0.0 - - - - - - -
20/01:30pm 30.7 ENE 10 12 1010.0 - 0.0 - - - - - - -
20/01:00pm 30.5 ENE 9 12 1010.5 - 0.0 - - - - - - -
20/12:30pm 30.3 NE 8 11 1011.1 - 0.0 - - - - - - -
20/12:00pm 30.4 NE 7 9 1011.4 - 0.0 - - - - - - -
20/11:30am 30.4 ENE 7 9 1011.8 - 0.0 - - - - - - -
20/11:00am 29.5 E 7 9 1012.0 - 0.0 - - - - - - -
20/10:30am 30.1 E 6 7 1012.4 - 0.0 - - - - - - -
20/10:00am 29.2 E 6 7 1012.4 - 0.0 - - - - - - -
20/09:30am 29.2 E 5 8 1012.2 - 0.0 - - - - - - -
20/09:00am 29.0 E 4 8 1012.2 - 0.0 - - - - - - -
20/08:30am 29.0 E 5 8 1012.0 - 0.0 - - - - - - -
20/08:00am 29.3 E 5 7 1011.8 - 0.0 - - - - - - -
20/07:30am 28.2 E 5 7 1011.7 - 0.0 - - - - - - -
20/07:00am 27.5 CALM 0 0 1011.5 - 0.0 - - - - - - -
20/06:30am 26.9 CALM 0 3 1011.3 - 0.0 - - - - - - -
20/06:00am 26.6 CALM 0 0 1011.1 - 0.0 - - - - - - -
20/05:30am 27.0 NE 3 4 1010.6 - 0.0 - - - - - - -
20/05:00am 27.1 NE 4 5 1010.3 - 0.0 - - - - - - -
20/04:30am 27.1 NNE 4 6 1010.1 - 0.0 - - - - - - -
20/04:00am 27.1 NNE 5 6 1010.1 - 0.0 - - - - - - -
20/03:30am 27.0 NNE 4 6 1010.1 - 0.0 - - - - - - -
20/03:00am 27.2 NE 5 6 1010.2 - 0.0 - - - - - - -
20/02:30am 27.2 NE 5 6 1010.4 - 0.0 - - - - - - -
20/02:00am 27.2 NE 3 6 1010.4 - 0.0 - - - - - - -
20/01:30am 27.3 NNE 6 8 1010.5 - 0.0 - - - - - - -
20/01:00am 27.3 NNE 6 7 1010.9 - 0.0 - - - - - - -
20/12:30am 27.4 N 5 7 1011.4 - 0.0 - - - - - - -
20/12:00am 27.4 NNE 6 8 1011.5 - 0.0 - - - - - - -
 
Date/Time
EST
Temp

°C
Wind Pressure Rain
since 9am
mm
Weather Cloud Vis
km
Sea
Height
m
Swell
Dir
 
Speed
knots
Gust
knots
hPa Trend Height
m
Period
s
Dir
19/11:30pm 27.5 NE 6 9 1011.7 - 0.0 - - - - - - -
19/11:00pm 27.5 NE 9 11 1011.5 - 0.0 - - - - - - -
19/10:30pm 27.6 NE 9 11 1011.7 - 0.0 - - - - - - -
19/10:00pm 27.6 NE 8 11 1012.0 - 0.0 - - - - - - -
19/09:30pm 27.7 NE 9 11 1011.3 - 0.0 - - - - - - -
19/09:00pm 27.8 NE 8 10 1011.4 - 0.0 - - - - - - -
19/08:30pm 27.8 NE 8 9 1011.3 - 0.0 - - - - - - -
19/08:00pm 27.8 NE 8 10 1011.1 - 0.0 - - - - - - -
19/07:30pm 27.8 NNE 8 10 1011.1 - 0.0 - - - - - - -
19/07:00pm 27.9 NNE 9 11 1010.7 - 0.0 - - - - - - -
19/06:30pm 28.0 NNE 8 10 1010.4 - 0.0 - - - - - - -
19/06:00pm 28.1 NNE 8 10 1010.1 - 0.0 - - - - - - -
19/05:30pm 28.2 NNE 9 13 1009.5 - 0.0 - - - - - - -
19/05:00pm 28.6 NNE 9 11 1009.4 - 0.0 - - - - - - -
19/04:30pm 29.1 NNE 9 12 1009.2 - 0.0 - - - - - - -
19/04:00pm 29.2 NNE 9 11 1009.3 - 0.0 - - - - - - -
19/03:30pm 29.1 NNE 10 12 1009.5 - 0.0 - - - - - - -
19/03:00pm 29.4 NNE 10 12 1009.5 - 0.0 - - - - - - -
19/02:30pm 30.1 NNE 9 13 1009.9 - 0.0 - - - - - - -
19/02:00pm 29.9 NNE 9 13 1010.1 - 0.0 - - - - - - -
19/01:30pm 29.5 NNE 10 13 1010.2 - 0.0 - - - - - - -
19/01:00pm 30.6 N 9 13 1010.7 - 0.0 - - - - - - -
19/12:30pm 29.7 N 10 13 1011.0 - 0.0 - - - - - - -
19/12:00pm 30.8 NNE 9 12 1011.2 - 0.0 - - - - - - -
19/11:30am 30.3 NNE 9 13 1011.7 - 0.0 - - - - - - -
19/11:00am 29.6 N 8 12 1012.0 - 0.0 - - - - - - -
19/10:30am 28.9 N 8 12 1012.1 - 0.0 - - - - - - -
19/10:00am 29.2 N 8 12 1012.1 - 0.0 - - - - - - -
19/09:30am 28.9 N 9 14 1011.9 - 0.0 - - - - - - -
19/09:00am 28.9 N 8 12 1012.1 - 0.0 - - - - - - -
19/08:30am 28.4 N 7 11 1012.4 - 0.0 - - - - - - -
19/08:00am 28.2 N 7 10 1012.2 - 0.0 - - - - - - -
19/07:30am 27.9 NNE 8 11 1011.7 - 0.0 - - - - - - -
19/07:00am 27.3 N 5 7 1011.9 - 0.0 - - - - - - -
19/06:30am 27.3 N 7 9 1011.5 - 0.0 - - - - - - -
19/06:00am 27.0 NNE 9 11 1010.7 - 0.0 - - - - - - -
19/05:30am 26.7 NE 9 11 1009.9 - 0.0 - - - - - - -
19/05:00am 26.5 NE 8 10 1009.7 - 0.0 - - - - - - -
19/04:30am 26.6 NE 8 10 1009.6 - 0.0 - - - - - - -
19/04:00am 26.7 NE 7 10 1009.7 - 0.0 - - - - - - -
19/03:30am 26.7 NE 8 10 1009.9 - 0.0 - - - - - - -
19/03:00am 26.0 N 3 9 1010.1 - 0.0 - - - - - - -
19/02:30am 25.2 N 1 4 1010.5 - 0.0 - - - - - - -
19/02:00am 25.0 WNW 2 3 1010.9 - 0.0 - - - - - - -
19/01:30am 25.6 CALM 0 0 1011.2 - 0.0 - - - - - - -
19/01:00am 26.4 NE 6 8 1011.3 - 0.0 - - - - - - -
19/12:30am 25.0 S 1 4 1012.0 - 0.0 - - - - - - -
19/12:00am 25.7 SSW 3 4 1012.8 - 0.0 - - - - - - -
 
Date/Time
EST
Temp

°C
Wind Pressure Rain
since 9am
mm
Weather Cloud Vis
km
Sea
Height
m
Swell
Dir
 
Speed
knots
Gust
knots
hPa Trend Height
m
Period
s
Dir
18/11:30pm 26.2 SW 3 5 1013.0 - 0.0 - - - - - - -
18/11:00pm 26.9 W 2 6 1013.1 - 0.0 - - - - - - -
18/10:30pm 27.1 NNE 7 11 1012.2 - 0.0 - - - - - - -
18/10:00pm 27.1 N 9 13 1011.9 - 0.0 - - - - - - -
18/09:30pm 27.2 NNE 9 12 1011.8 - 0.0 - - - - - - -
18/09:00pm 27.4 NNE 10 12 1011.6 - 0.0 - - - - - - -
18/08:30pm 27.3 NNE 9 12 1011.2 - 0.0 - - - - - - -
18/08:00pm 27.5 N 8 11 1011.2 - 0.0 - - - - - - -
18/07:30pm 27.5 N 9 13 1010.7 - 0.0 - - - - - - -

Other Formats:

Comma delimited format used in spreadsheet applications
http://www.bom.gov.au/fwo/IDQ60701/IDQ60701.95296.axf

JavaScript Object Notation format (JSON) in row-major order
http://www.bom.gov.au/fwo/IDQ60701/IDQ60701.95296.json